createdAt,value
2018-04-15T00:02:09.635Z,6.80
2018-04-15T00:04:36.706Z,6.45
2018-04-15T00:07:02.904Z,6.90
2018-04-15T00:09:29.149Z,6.70
2018-04-15T00:11:55.334Z,7.40
2018-04-15T00:14:21.951Z,6.57
2018-04-15T00:16:48.142Z,6.40
2018-04-15T00:19:14.331Z,6.90
2018-04-15T00:21:40.919Z,6.80
2018-04-15T00:24:07.110Z,6.45
2018-04-15T00:26:33.326Z,6.55
2018-04-15T00:28:59.912Z,8.38
2018-04-15T00:31:26.105Z,6.75
2018-04-15T00:33:52.294Z,6.95
2018-04-15T00:36:18.475Z,6.65
2018-04-15T00:38:44.649Z,7.12
2018-04-15T00:41:10.859Z,7.70
2018-04-15T00:43:37.055Z,6.90
2018-04-15T00:46:03.233Z,7.03
2018-04-15T00:48:29.485Z,6.80
2018-04-15T00:50:55.638Z,6.78
2018-04-15T00:53:21.849Z,7.30
2018-04-15T00:55:48.030Z,6.68
2018-04-15T00:58:14.251Z,6.55
2018-04-15T01:00:40.472Z,6.85
2018-04-15T01:03:06.655Z,6.93
2018-04-15T01:05:32.910Z,6.70
2018-04-15T01:07:59.135Z,7.18
2018-04-15T01:10:25.304Z,7.47
2018-04-15T01:12:51.534Z,6.90
2018-04-15T01:15:17.744Z,7.30
2018-04-15T01:17:43.934Z,6.65
2018-04-15T01:20:10.135Z,6.68
2018-04-15T01:22:36.689Z,6.45
2018-04-15T01:25:02.934Z,7.40
2018-04-15T01:27:29.166Z,6.70
2018-04-15T01:29:55.408Z,7.47
2018-04-15T01:32:21.562Z,6.25
2018-04-15T01:34:47.758Z,6.60
2018-04-15T01:37:13.955Z,7.80
2018-04-15T01:39:40.147Z,6.47
2018-04-15T01:42:06.338Z,6.72
2018-04-15T01:44:32.543Z,7.78
2018-04-15T01:46:58.739Z,7.12
2018-04-15T01:49:25.337Z,7.25
2018-04-15T01:51:51.564Z,6.70
2018-04-15T01:54:17.800Z,7.68
2018-04-15T01:56:44.012Z,6.93
2018-04-15T01:59:10.240Z,8.77
2018-04-15T02:01:36.428Z,8.48
2018-04-15T02:04:02.988Z,8.13
2018-04-15T02:06:29.220Z,7.43
2018-04-15T02:08:55.415Z,7.93
2018-04-15T02:11:22.006Z,7.18
2018-04-15T02:13:48.238Z,7.37
2018-04-15T02:16:14.462Z,8.15
2018-04-15T02:18:40.681Z,7.40
2018-04-15T02:21:06.866Z,8.23
2018-04-15T02:23:34.458Z,7.57
2018-04-15T02:26:00.667Z,7.15
2018-04-15T02:28:26.872Z,8.20
2018-04-15T02:30:53.107Z,8.48
2018-04-15T02:33:19.289Z,9.43
2018-04-15T02:35:45.491Z,8.57
2018-04-15T02:38:11.694Z,8.85
2018-04-15T02:40:37.911Z,9.38
2018-04-15T02:43:04.482Z,9.45
2018-04-15T02:45:30.726Z,8.40
2018-04-15T02:47:56.922Z,9.68
2018-04-15T02:50:23.139Z,10.02
2018-04-15T02:52:49.358Z,9.60
2018-04-15T02:55:15.547Z,8.95
2018-04-15T02:57:41.733Z,10.20
2018-04-15T03:00:07.930Z,10.73
2018-04-15T03:02:34.113Z,8.95
2018-04-15T03:05:00.362Z,9.23
2018-04-15T03:07:26.566Z,7.90
2018-04-15T03:09:52.769Z,9.43
2018-04-15T03:12:19.874Z,9.43
2018-04-15T03:14:46.053Z,8.15
2018-04-15T03:17:12.254Z,8.57
2018-04-15T03:19:38.821Z,7.95
2018-04-15T03:22:05.011Z,8.00
2018-04-15T03:24:31.567Z,8.65
2018-04-15T03:26:57.746Z,8.32
2018-04-15T03:29:23.958Z,8.60
2018-04-15T03:31:50.142Z,7.93
2018-04-15T03:34:16.790Z,7.93
2018-04-15T03:36:42.985Z,8.63
2018-04-15T03:39:09.166Z,10.18
2018-04-15T03:41:35.379Z,8.48
2018-04-15T03:44:01.580Z,8.80
2018-04-15T03:46:27.765Z,8.45
2018-04-15T03:48:53.980Z,9.98
2018-04-15T03:51:20.174Z,9.05
2018-04-15T03:53:46.741Z,8.55
2018-04-15T03:56:12.964Z,8.23
2018-04-15T03:58:39.155Z,9.30
2018-04-15T04:01:05.354Z,8.30
2018-04-15T04:03:31.550Z,8.57
2018-04-15T04:05:57.790Z,8.25
2018-04-15T04:08:23.971Z,9.02
2018-04-15T04:10:50.521Z,7.75
2018-04-15T04:13:16.784Z,8.13
2018-04-15T04:15:43.022Z,7.70
2018-04-15T04:18:21.432Z,7.82
2018-04-15T04:20:59.801Z,7.35
2018-04-15T04:23:39.928Z,7.70
2018-04-15T04:26:06.127Z,7.70
2018-04-15T04:28:32.323Z,8.52
2018-04-15T04:30:58.522Z,8.93
2018-04-15T04:33:25.093Z,9.50
2018-04-15T04:35:51.313Z,7.40
2018-04-15T04:38:18.161Z,8.50
2018-04-15T04:40:44.554Z,9.52
2018-04-15T04:43:10.749Z,8.60
2018-04-15T04:45:36.999Z,8.85
2018-04-15T04:48:03.225Z,8.52
2018-04-15T04:50:30.006Z,8.70
2018-04-15T04:52:56.230Z,9.60
2018-04-15T04:55:22.418Z,8.10
2018-04-15T04:57:48.630Z,8.10
2018-04-15T05:00:14.847Z,8.13
2018-04-15T05:02:41.038Z,8.18
2018-04-15T05:05:07.249Z,7.95
2018-04-15T05:07:33.616Z,8.68
2018-04-15T05:09:59.799Z,10.02
2018-04-15T05:12:27.093Z,9.10
2018-04-15T05:14:53.297Z,8.77
2018-04-15T05:17:19.896Z,10.10
2018-04-15T05:19:46.163Z,9.30
2018-04-15T05:22:12.358Z,7.95
2018-04-15T05:24:38.553Z,8.05
2018-04-15T05:27:04.741Z,9.48
2018-04-15T05:29:30.957Z,10.45
2018-04-15T05:31:57.150Z,9.82
2018-04-15T05:34:23.329Z,10.65
2018-04-15T05:36:49.561Z,9.52
2018-04-15T05:39:15.740Z,9.65
2018-04-15T05:41:41.954Z,10.57
2018-04-15T05:44:08.767Z,9.98
2018-04-15T05:46:34.957Z,10.80
2018-04-15T05:49:01.198Z,10.95
2018-04-15T05:51:27.754Z,11.77
2018-04-15T05:53:53.988Z,9.98
2018-04-15T05:56:20.197Z,9.85
2018-04-15T05:58:46.773Z,11.73
2018-04-15T06:01:13.614Z,10.93
2018-04-15T06:03:39.814Z,10.00
2018-04-15T06:06:06.021Z,10.90
2018-04-15T06:08:32.264Z,9.75
2018-04-15T06:10:58.510Z,10.45
2018-04-15T06:13:24.710Z,10.27
2018-04-15T06:15:50.904Z,10.38
2018-04-15T06:18:17.131Z,9.30
2018-04-15T06:20:43.356Z,11.30
2018-04-15T06:23:09.556Z,11.07
2018-04-15T06:25:36.635Z,9.77
2018-04-15T06:28:02.848Z,9.88
2018-04-15T06:30:29.103Z,10.30
2018-04-15T06:32:55.330Z,9.45
2018-04-15T06:35:21.544Z,10.35
2018-04-15T06:37:47.731Z,10.68
2018-04-15T06:40:14.002Z,9.70
2018-04-15T06:42:40.189Z,10.15
2018-04-15T06:45:06.435Z,11.07
2018-04-15T06:47:32.631Z,10.23
2018-04-15T06:49:58.806Z,9.80
2018-04-15T06:52:25.569Z,10.32
2018-04-15T06:54:54.582Z,9.55
2018-04-15T06:57:25.222Z,9.90
2018-04-15T06:59:51.427Z,10.48
2018-04-15T07:02:17.625Z,10.95
2018-04-15T07:04:43.848Z,10.95
2018-04-15T07:07:10.690Z,10.43
2018-04-15T07:09:36.952Z,10.75
2018-04-15T07:12:03.601Z,10.30
2018-04-15T07:14:29.896Z,10.07
2018-04-15T07:16:56.906Z,9.38
2018-04-15T07:19:23.131Z,10.13
2018-04-15T07:21:50.034Z,10.77
2018-04-15T07:24:16.301Z,9.95
2018-04-15T07:26:42.506Z,10.13
2018-04-15T07:29:09.094Z,11.02
2018-04-15T07:31:35.275Z,11.05
2018-04-15T07:34:01.912Z,11.60
2018-04-15T07:36:28.115Z,10.70
2018-04-15T07:38:54.318Z,10.50
2018-04-15T07:41:20.560Z,10.77
2018-04-15T07:43:46.774Z,9.40
2018-04-15T07:46:12.999Z,10.20
2018-04-15T07:48:39.194Z,10.85
2018-04-15T07:51:05.430Z,10.95
2018-04-15T07:53:31.626Z,11.73
2018-04-15T07:55:58.186Z,10.75
2018-04-15T07:58:31.980Z,11.02
2018-04-15T08:00:58.166Z,9.48
2018-04-15T08:03:24.366Z,10.15
2018-04-15T08:05:50.590Z,9.85
2018-04-15T08:08:16.837Z,10.70
2018-04-15T08:10:43.097Z,10.85
2018-04-15T08:13:09.614Z,10.45
2018-04-15T08:15:35.859Z,10.82
2018-04-15T08:18:02.509Z,10.20
2018-04-15T08:20:29.053Z,11.48
2018-04-15T08:22:55.277Z,10.60
2018-04-15T08:25:21.474Z,11.15
2018-04-15T08:27:47.665Z,10.32
2018-04-15T08:30:13.933Z,10.48
2018-04-15T08:32:40.266Z,9.82
2018-04-15T08:35:06.540Z,9.30
2018-04-15T08:37:32.730Z,9.55
2018-04-15T08:39:59.314Z,9.43
2018-04-15T08:42:25.540Z,8.90
2018-04-15T08:44:51.780Z,9.20
2018-04-15T08:47:17.994Z,8.67
2018-04-15T08:49:44.236Z,8.97
2018-04-15T08:52:10.469Z,9.20
2018-04-15T08:54:36.722Z,9.53
2018-04-15T08:57:02.931Z,9.30
2018-04-15T08:59:29.157Z,9.47
2018-04-15T09:01:55.446Z,9.90
2018-04-15T09:04:21.630Z,10.10
2018-04-15T09:06:47.862Z,9.00
2018-04-15T09:09:14.143Z,9.73
2018-04-15T09:11:40.366Z,10.00
2018-04-15T09:14:06.564Z,8.50
2018-04-15T09:16:33.153Z,8.13
2018-04-15T09:18:59.359Z,8.53
2018-04-15T09:21:25.566Z,7.83
2018-04-15T09:23:51.823Z,6.83
2018-04-15T09:26:18.048Z,6.40
2018-04-15T09:28:44.254Z,6.93
2018-04-15T09:31:11.471Z,6.47
2018-04-15T09:33:37.721Z,6.77
2018-04-15T09:36:03.961Z,6.83
2018-04-15T09:38:30.200Z,7.20
2018-04-15T09:40:56.518Z,7.00
2018-04-15T09:43:23.695Z,6.83
2018-04-15T09:45:50.627Z,6.83
2018-04-15T09:48:16.842Z,6.90
2018-04-15T09:50:43.061Z,6.87
2018-04-15T09:53:09.631Z,6.37
2018-04-15T09:55:35.808Z,7.03
2018-04-15T09:58:02.038Z,6.40
2018-04-15T10:00:28.245Z,7.43
2018-04-15T10:02:54.469Z,6.80
2018-04-15T10:05:20.690Z,6.77
2018-04-15T10:07:46.905Z,6.60
2018-04-15T10:10:13.114Z,7.47
2018-04-15T10:12:40.165Z,6.43
2018-04-15T10:15:06.389Z,7.10
2018-04-15T10:17:32.621Z,7.47
2018-04-15T10:19:58.847Z,6.83
2018-04-15T10:22:25.057Z,6.90
2018-04-15T10:24:51.629Z,6.90
2018-04-15T10:27:17.881Z,7.30
2018-04-15T10:29:44.119Z,7.90
2018-04-15T10:32:10.329Z,6.37
2018-04-15T10:34:36.549Z,7.30
2018-04-15T10:37:02.866Z,6.80
2018-04-15T10:39:29.091Z,6.80
2018-04-15T10:41:55.283Z,7.20
2018-04-15T10:44:21.843Z,6.37
2018-04-15T10:46:48.062Z,7.47
2018-04-15T10:49:14.277Z,7.23
2018-04-15T10:51:41.563Z,6.77
2018-04-15T10:54:07.831Z,7.07
2018-04-15T10:56:34.078Z,6.70
2018-04-15T10:59:00.663Z,6.30
2018-04-15T11:01:26.915Z,6.17
2018-04-15T11:03:53.112Z,6.70
2018-04-15T11:06:19.315Z,7.50
2018-04-15T11:08:45.547Z,7.27
2018-04-15T11:11:11.762Z,7.17
2018-04-15T11:13:37.975Z,7.40
2018-04-15T11:16:04.177Z,8.50
2018-04-15T11:18:30.381Z,7.73
2018-04-15T11:20:56.604Z,8.03
2018-04-15T11:23:22.825Z,9.10
2018-04-15T11:25:49.043Z,9.10
2018-04-15T11:28:15.241Z,9.00
2018-04-15T11:30:41.825Z,7.57
2018-04-15T11:33:08.026Z,7.53
2018-04-15T11:35:34.281Z,8.20
2018-04-15T11:38:01.528Z,8.00
2018-04-15T11:40:27.791Z,7.90
2018-04-15T11:42:54.132Z,8.10
2018-04-15T11:45:20.500Z,7.97
2018-04-15T11:47:47.030Z,7.47
2018-04-15T11:50:13.217Z,7.77
2018-04-15T11:52:39.399Z,7.57
2018-04-15T11:55:08.060Z,6.97
2018-04-15T11:57:34.613Z,7.67
2018-04-15T12:00:00.769Z,7.67
2018-04-15T12:02:27.059Z,7.40
2018-04-15T12:04:53.267Z,8.03
2018-04-15T12:07:19.500Z,8.00
2018-04-15T12:09:45.709Z,7.63
2018-04-15T12:12:11.951Z,7.87
2018-04-15T12:14:38.169Z,7.90
2018-04-15T12:17:04.466Z,7.83
2018-04-15T12:19:31.468Z,7.17
2018-04-15T12:21:57.685Z,7.07
2018-04-15T12:24:24.667Z,6.90
2018-04-15T12:26:50.872Z,7.57
2018-04-15T12:29:17.476Z,6.80
2018-04-15T12:31:43.686Z,7.17
2018-04-15T12:34:09.875Z,6.57
2018-04-15T12:36:36.074Z,6.77
2018-04-15T12:39:02.281Z,6.60
2018-04-15T12:41:28.481Z,5.90
2018-04-15T12:43:54.737Z,7.07
2018-04-15T12:46:20.938Z,5.80
2018-04-15T12:48:47.129Z,6.57
2018-04-15T12:51:13.732Z,5.97
2018-04-15T12:53:39.931Z,6.10
2018-04-15T12:56:06.118Z,6.20
2018-04-15T12:58:32.333Z,5.60
2018-04-15T13:00:58.556Z,5.43
2018-04-15T13:03:25.410Z,5.70
2018-04-15T13:05:51.660Z,6.10
2018-04-15T13:08:17.899Z,5.20
2018-04-15T13:10:44.088Z,5.33
2018-04-15T13:13:10.324Z,5.43
2018-04-15T13:15:36.961Z,5.77
2018-04-15T13:18:03.217Z,5.50
2018-04-15T13:20:29.421Z,6.40
2018-04-15T13:22:55.621Z,5.70
2018-04-15T13:25:21.851Z,5.40
2018-04-15T13:27:48.974Z,5.37
2018-04-15T13:30:15.185Z,6.70
2018-04-15T13:32:41.437Z,5.07
2018-04-15T13:35:07.625Z,5.33
2018-04-15T13:37:33.844Z,6.13
2018-04-15T13:40:00.468Z,5.83
2018-04-15T13:42:26.662Z,5.23
2018-04-15T13:44:52.871Z,6.77
2018-04-15T13:47:19.091Z,6.23
2018-04-15T13:49:45.363Z,5.30
2018-04-15T13:52:11.551Z,5.50
2018-04-15T13:54:37.758Z,5.77
2018-04-15T13:57:04.000Z,5.67
2018-04-15T13:59:31.042Z,5.40
2018-04-15T14:01:57.269Z,5.03
2018-04-15T14:04:23.495Z,6.40
2018-04-15T14:06:49.666Z,5.80
2018-04-15T14:09:15.879Z,5.93
2018-04-15T14:11:42.104Z,6.43
2018-04-15T14:14:08.319Z,6.80
2018-04-15T14:16:34.562Z,5.93
2018-04-15T14:19:01.680Z,6.30
2018-04-15T14:21:27.897Z,7.10
2018-04-15T14:23:54.473Z,5.97
2018-04-15T14:26:20.682Z,5.70
2018-04-15T14:28:46.892Z,5.87
2018-04-15T14:31:13.108Z,5.70
2018-04-15T14:33:39.343Z,7.10
2018-04-15T14:36:05.557Z,6.03
2018-04-15T14:38:32.763Z,6.10
2018-04-15T14:40:59.019Z,6.10
2018-04-15T14:43:25.239Z,6.10
2018-04-15T14:45:52.390Z,6.30
2018-04-15T14:48:18.620Z,6.13
2018-04-15T14:50:44.836Z,5.97
2018-04-15T14:53:11.064Z,6.20
2018-04-15T14:55:37.269Z,6.13
2018-04-15T14:58:03.480Z,6.40
2018-04-15T15:00:29.718Z,5.30
2018-04-15T15:02:55.949Z,6.00
2018-04-15T15:05:22.701Z,6.20
2018-04-15T15:07:48.925Z,5.67
2018-04-15T15:10:15.171Z,5.40
2018-04-15T15:12:41.382Z,5.40
2018-04-15T15:15:07.605Z,5.70
2018-04-15T15:17:33.790Z,6.17
2018-04-15T15:20:00.441Z,6.43
2018-04-15T15:22:27.017Z,6.33
2018-04-15T15:24:53.231Z,6.97
2018-04-15T15:27:19.453Z,7.10
2018-04-15T15:29:45.688Z,7.03
2018-04-15T15:32:11.894Z,7.83
2018-04-15T15:34:38.139Z,7.90
2018-04-15T15:37:04.383Z,7.83
2018-04-15T15:39:30.594Z,9.03
2018-04-15T15:41:56.841Z,7.70
2018-04-15T15:44:23.074Z,8.20
2018-04-15T15:46:49.255Z,8.13
2018-04-15T15:49:15.865Z,8.90
2018-04-15T15:51:42.050Z,8.40
2018-04-15T15:54:08.271Z,8.30
2018-04-15T15:56:34.502Z,7.37
2018-04-15T15:59:00.730Z,6.30
2018-04-15T16:01:26.943Z,7.40
2018-04-15T16:03:53.211Z,7.60
2018-04-15T16:06:19.432Z,7.90
2018-04-15T16:08:45.613Z,9.30
2018-04-15T16:11:12.214Z,8.63
2018-04-15T16:13:39.086Z,8.90
2018-04-15T16:16:05.751Z,8.10
2018-04-15T16:18:31.990Z,8.40
2018-04-15T16:20:58.263Z,8.67
2018-04-15T16:23:24.534Z,8.90
2018-04-15T16:25:50.737Z,7.97
2018-04-15T16:28:17.362Z,8.10
2018-04-15T16:30:43.594Z,9.40
2018-04-15T16:33:09.832Z,9.33
2018-04-15T16:35:36.426Z,9.57
2018-04-15T16:38:02.743Z,8.00
2018-04-15T16:40:28.995Z,8.73
2018-04-15T16:42:55.264Z,8.57
2018-04-15T16:45:22.552Z,8.43
2018-04-15T16:47:49.083Z,9.67
2018-04-15T16:50:15.594Z,10.27
2018-04-15T16:52:41.901Z,10.90
2018-04-15T16:55:08.035Z,10.57
2018-04-15T16:57:34.580Z,9.87
2018-04-15T17:00:01.221Z,11.40
2018-04-15T17:02:27.534Z,10.37
2018-04-15T17:04:54.873Z,11.50
2018-04-15T17:07:21.409Z,11.03
2018-04-15T17:09:49.117Z,8.90
2018-04-15T17:12:15.468Z,7.80
2018-04-15T17:14:41.703Z,10.90
2018-04-15T17:17:07.895Z,9.30
2018-04-15T17:19:34.153Z,10.13
2018-04-15T17:22:00.449Z,10.60
2018-04-15T17:24:26.847Z,10.17
2018-04-15T17:26:53.385Z,9.57
2018-04-15T17:29:20.154Z,9.90
2018-04-15T17:31:46.780Z,9.20
2018-04-15T17:34:13.730Z,9.63
2018-04-15T17:36:40.132Z,9.67
2018-04-15T17:39:06.411Z,9.60
2018-04-15T17:41:33.072Z,8.60
2018-04-15T17:43:59.252Z,9.27
2018-04-15T17:46:25.525Z,9.50
2018-04-15T17:48:53.233Z,8.80
2018-04-15T17:51:20.769Z,9.67
2018-04-15T17:53:47.523Z,9.43
2018-04-15T17:56:13.736Z,9.50
2018-04-15T17:58:39.930Z,8.50
2018-04-15T18:01:06.158Z,9.10
2018-04-15T18:03:33.390Z,8.50
2018-04-15T18:05:59.929Z,9.17
2018-04-15T18:08:27.929Z,9.27
2018-04-15T18:10:55.709Z,10.13
2018-04-15T18:13:22.394Z,9.20
2018-04-15T18:15:48.676Z,8.73
2018-04-15T18:18:15.591Z,9.90
2018-04-15T18:20:41.827Z,9.83
2018-04-15T18:23:08.021Z,8.60
2018-04-15T18:25:34.209Z,9.70
2018-04-15T18:28:00.468Z,8.27
2018-04-15T18:30:26.715Z,8.70
2018-04-15T18:32:53.449Z,9.87
2018-04-15T18:35:20.952Z,10.60
2018-04-15T18:37:47.513Z,10.30
2018-04-15T18:40:14.883Z,9.30
2018-04-15T18:42:45.676Z,9.60
2018-04-15T18:45:11.999Z,10.23
2018-04-15T18:47:38.251Z,10.00
2018-04-15T18:50:04.642Z,9.67
2018-04-15T18:52:30.944Z,8.43
2018-04-15T18:54:57.611Z,9.13
2018-04-15T18:57:24.660Z,9.23
2018-04-15T18:59:50.905Z,8.93
2018-04-15T19:02:17.919Z,10.33
2018-04-15T19:04:44.557Z,10.00
2018-04-15T19:07:11.160Z,9.80
2018-04-15T19:09:42.672Z,9.00
2018-04-15T19:12:10.816Z,10.50
2018-04-15T19:14:37.089Z,9.97
2018-04-15T19:17:03.417Z,10.10
2018-04-15T19:19:29.709Z,11.10
2018-04-15T19:21:56.011Z,9.77
2018-04-15T19:24:22.613Z,9.60
2018-04-15T19:26:48.838Z,11.33
2018-04-15T19:29:15.089Z,10.70
2018-04-15T19:31:41.399Z,10.70
2018-04-15T19:34:08.562Z,10.47
2018-04-15T19:36:38.297Z,10.50
2018-04-15T19:39:05.595Z,10.60
2018-04-15T19:41:32.093Z,9.67
2018-04-15T19:43:58.400Z,12.87
2018-04-15T19:46:24.814Z,13.73
2018-04-15T19:48:51.260Z,12.53
2018-04-15T19:51:17.603Z,13.60
2018-04-15T19:53:43.929Z,11.23
2018-04-15T19:56:10.127Z,12.50
2018-04-15T19:58:36.359Z,12.73
2018-04-15T20:01:02.665Z,12.00
2018-04-15T20:03:28.899Z,10.63
2018-04-15T20:05:55.983Z,11.37
2018-04-15T20:08:22.526Z,11.17
2018-04-15T20:10:49.878Z,10.67
2018-04-15T20:13:16.552Z,11.30
2018-04-15T20:15:42.797Z,12.90
2018-04-15T20:18:09.097Z,11.70
2018-04-15T20:20:35.774Z,13.27
2018-04-15T20:23:01.980Z,13.10
2018-04-15T20:25:28.198Z,13.73
2018-04-15T20:27:54.772Z,14.40
2018-04-15T20:30:20.993Z,13.03
2018-04-15T20:32:47.237Z,12.37
2018-04-15T20:35:13.427Z,13.53
2018-04-15T20:37:39.708Z,13.00
2018-04-15T20:40:05.968Z,13.20
2018-04-15T20:42:32.570Z,13.13
2018-04-15T20:44:58.779Z,13.87
2018-04-15T20:47:25.822Z,13.57
2018-04-15T20:49:52.029Z,11.23
2018-04-15T20:52:18.230Z,13.00
2018-04-15T20:54:44.450Z,11.00
2018-04-15T20:57:10.649Z,12.40
2018-04-15T20:59:36.876Z,12.67
2018-04-15T21:02:03.083Z,12.10
2018-04-15T21:04:29.328Z,12.23
2018-04-15T21:06:55.581Z,11.67
2018-04-15T21:09:21.825Z,12.67
2018-04-15T21:11:48.447Z,12.80
2018-04-15T21:14:14.638Z,13.00
2018-04-15T21:16:40.880Z,14.20
2018-04-15T21:19:07.079Z,13.03
2018-04-15T21:21:33.239Z,14.63
2018-04-15T21:23:59.466Z,15.33
2018-04-15T21:26:25.711Z,13.60
2018-04-15T21:28:51.893Z,13.97
2018-04-15T21:31:18.112Z,14.33
2018-04-15T21:33:44.450Z,13.87
2018-04-15T21:36:10.667Z,15.53
2018-04-15T21:38:36.901Z,13.70
2018-04-15T21:41:03.168Z,14.17
2018-04-15T21:43:29.656Z,13.70
2018-04-15T21:45:55.948Z,13.10
2018-04-15T21:48:22.224Z,13.93
2018-04-15T21:50:48.442Z,14.70
2018-04-15T21:53:14.750Z,14.27
2018-04-15T21:55:40.979Z,15.23
2018-04-15T21:58:07.583Z,13.20
2018-04-15T22:00:33.862Z,14.57
2018-04-15T22:03:00.982Z,15.60
2018-04-15T22:05:27.277Z,14.93
2018-04-15T22:07:53.490Z,13.60
2018-04-15T22:10:19.719Z,14.13
2018-04-15T22:12:45.946Z,13.17
2018-04-15T22:15:12.160Z,14.70
2018-04-15T22:17:38.354Z,14.30
2018-04-15T22:20:04.925Z,14.93
2018-04-15T22:22:31.146Z,13.70
2018-04-15T22:24:57.334Z,13.73
2018-04-15T22:27:23.633Z,16.47
2018-04-15T22:29:49.861Z,13.63
2018-04-15T22:32:16.099Z,14.33
2018-04-15T22:34:42.281Z,15.07
2018-04-15T22:37:08.869Z,15.03
2018-04-15T22:39:35.117Z,14.57
2018-04-15T22:42:01.321Z,15.47
2018-04-15T22:44:27.524Z,13.23
2018-04-15T22:46:53.764Z,13.87
2018-04-15T22:49:21.918Z,13.87
2018-04-15T22:51:48.170Z,14.57
2018-04-15T22:54:14.428Z,14.17
2018-04-15T22:56:42.461Z,13.37
2018-04-15T22:59:08.684Z,13.80
2018-04-15T23:01:34.886Z,13.07
2018-04-15T23:04:01.102Z,12.50
2018-04-15T23:06:28.047Z,13.47
2018-04-15T23:08:54.245Z,12.33
2018-04-15T23:11:20.453Z,14.27
2018-04-15T23:13:47.078Z,14.20
2018-04-15T23:16:13.346Z,13.20
2018-04-15T23:18:39.552Z,12.70
2018-04-15T23:21:05.776Z,14.65
2018-04-15T23:23:32.023Z,13.83
2018-04-15T23:25:58.215Z,14.00
2018-04-15T23:28:24.403Z,13.40
2018-04-15T23:30:50.619Z,12.80
2018-04-15T23:33:16.817Z,15.10
2018-04-15T23:35:43.056Z,14.43
2018-04-15T23:38:09.247Z,13.73
2018-04-15T23:40:35.481Z,14.97
2018-04-15T23:43:01.706Z,14.50
2018-04-15T23:45:27.901Z,14.85
2018-04-15T23:47:54.485Z,14.05
2018-04-15T23:50:20.678Z,13.82
2018-04-15T23:52:46.897Z,14.05
2018-04-15T23:55:13.126Z,13.27
2018-04-15T23:57:39.322Z,13.20
